Wilmington, DE (19801)

2:13 PM EDT on March 28, 2015 (GMT -0400)
Port of Wilmington | | Change Station
CLOSE
Current Station
Personal Weather Station
Location: Wilmington, DE
Elevation: 30 ft
Nearby Weather Stations

Elev 30 ft 39.72 °N, 75.53 °W | Updated 18 minutes ago

Overcast
Overcast
36.5 °F
Feels Like 27 °F
N
17.0
Wind Variable Wind from NNW
Gusts 20.0 mph

Today
High -- | Low -- °F
--% Chance of Precip.
Yesterday
High -- | Low -- °F
Precip. -- in
6:53 AM 7:22 PM
Waxing Gibbous, 64% visible
Pressure 29.93 in
Visibility 10.0 miles
Clouds Mostly Cloudy 4400 ft
Mostly Cloudy 6000 ft
Windchill 27 °F
Dew Point 22 °F
Humidity 56%
Rainfall 0.00 in
Snow Depth Not available.
UV 4 out of 12
Pollen 8.60 out of 12
Air Quality Not available.
Flu Activity Not available.
METAR KILG 281751Z 31018G22KT 10SM BKN044 BKN060 03/M08 A2993 RMK AO2 SLP134 60000 T00281078 10039 20011 53002

More Conditions Fewer Conditions

Pressure 29.93 in
Visibility 10.0 miles
Clouds Mostly Cloudy 4400 ft
Mostly Cloudy 6000 ft
Windchill 27 °F
Dew Point 22 °F
Humidity 56%
Rainfall 0.00 in
Snow Depth Not available.
UV 4 out of 12
Pollen 8.60 out of 12
Air Quality Not available.
Flu Activity Not available.
METAR KILG 281751Z 31018G22KT 10SM BKN044 BKN060 03/M08 A2993 RMK AO2 SLP134 60000 T00281078 10039 20011 53002

More Conditions Fewer Conditions

Nowcast | as of 1:17 PM EDT on March 28, 2015

Snow flurries and isolated snow showers can be expected from time to time over southern New Jersey and northern and central Delaware through the mid-afternoon hours. Little to no accumulation is expected. Northwest winds with gusts in the 20 to 30 mph range are also expected...along with steady or slowly falling temperatures.

×

10-Day Weather Forecast

Almanac

Astronomy

Mar. 28, 2015 Rise Set
Actual Time
Civil Twilight
Nautical Twilight
Astronomical Twilight
Moon
Length of Visible Light
Length of Day
Tomorrow will be .
, % of the Moon is Illuminated

Today's Extremes

State Highs State Lows

Community

WunderPhotos

Upload Photos

1,809,050 photos uploaded!

WunderBlogs® & News

Nearby

Air Quality

  Air Quality AQ Index Pollutant
Not available.

Snow Depth

Station Depth Elevation

Earthquake Activity

City Distance Mag. Time & Date
Minimum magnitude displayed is 2.5.

Coastal Water Temperatures

Place Temperature

Stations

Nearby Weather Stations

Station Location Temp. Windchill Dew Point Humidity Wind Precip. Elev Updated Type